sensor_id;sensor_type;location;lat;lon;timestamp;temperature;humidity
46336;DHT22;31365;48.858;8.530;2022-12-07T00:01:45;4.80;99.90
46336;DHT22;31365;48.858;8.530;2022-12-07T00:04:18;4.80;99.90
46336;DHT22;31365;48.858;8.530;2022-12-07T00:06:50;4.80;99.90
46336;DHT22;31365;48.858;8.530;2022-12-07T00:09:20;4.80;99.90
46336;DHT22;31365;48.858;8.530;2022-12-07T00:11:50;4.80;99.90
46336;DHT22;31365;48.858;8.530;2022-12-07T00:14:20;4.70;99.90
46336;DHT22;31365;48.858;8.530;2022-12-07T00:16:50;4.80;99.90
46336;DHT22;31365;48.858;8.530;2022-12-07T00:19:21;4.70;99.90
46336;DHT22;31365;48.858;8.530;2022-12-07T00:21:49;4.80;99.90
46336;DHT22;31365;48.858;8.530;2022-12-07T00:24:18;4.80;99.90
46336;DHT22;31365;48.858;8.530;2022-12-07T00:26:46;4.80;99.90
46336;DHT22;31365;48.858;8.530;2022-12-07T00:29:17;4.70;99.90
46336;DHT22;31365;48.858;8.530;2022-12-07T00:31:46;4.60;99.90
46336;DHT22;31365;48.858;8.530;2022-12-07T00:34:17;4.60;99.90
46336;DHT22;31365;48.858;8.530;2022-12-07T00:36:48;4.60;99.90
46336;DHT22;31365;48.858;8.530;2022-12-07T00:39:17;4.70;99.90
46336;DHT22;31365;48.858;8.530;2022-12-07T00:50:59;4.70;99.90
46336;DHT22;31365;48.858;8.530;2022-12-07T00:53:29;4.70;99.90
46336;DHT22;31365;48.858;8.530;2022-12-07T00:56:06;4.70;99.90
46336;DHT22;31365;48.858;8.530;2022-12-07T00:58:35;4.70;99.90
46336;DHT22;31365;48.858;8.530;2022-12-07T01:01:05;4.70;99.90
46336;DHT22;31365;48.858;8.530;2022-12-07T01:03:36;4.60;99.90
46336;DHT22;31365;48.858;8.530;2022-12-07T01:06:05;4.60;99.90
46336;DHT22;31365;48.858;8.530;2022-12-07T01:08:35;4.70;99.90
46336;DHT22;31365;48.858;8.530;2022-12-07T01:11:05;4.70;99.90
46336;DHT22;31365;48.858;8.530;2022-12-07T01:13:35;4.70;99.90
46336;DHT22;31365;48.858;8.530;2022-12-07T01:16:05;4.60;99.90
46336;DHT22;31365;48.858;8.530;2022-12-07T01:18:35;4.60;99.90
46336;DHT22;31365;48.858;8.530;2022-12-07T01:21:09;4.50;99.90
46336;DHT22;31365;48.858;8.530;2022-12-07T01:23:40;4.50;99.90
46336;DHT22;31365;48.858;8.530;2022-12-07T01:26:11;4.50;99.90
46336;DHT22;31365;48.858;8.530;2022-12-07T01:28:41;4.50;99.90
46336;DHT22;31365;48.858;8.530;2022-12-07T01:31:12;4.50;99.90
46336;DHT22;31365;48.858;8.530;2022-12-07T01:33:44;4.40;99.90
46336;DHT22;31365;48.858;8.530;2022-12-07T01:36:15;4.40;99.90
46336;DHT22;31365;48.858;8.530;2022-12-07T01:38:47;4.50;99.90
46336;DHT22;31365;48.858;8.530;2022-12-07T01:41:18;4.50;99.90
46336;DHT22;31365;48.858;8.530;2022-12-07T01:46:58;4.50;99.90
46336;DHT22;31365;48.858;8.530;2022-12-07T01:49:33;4.50;99.90
46336;DHT22;31365;48.858;8.530;2022-12-07T01:52:10;4.50;99.90
46336;DHT22;31365;48.858;8.530;2022-12-07T01:54:46;4.50;99.90
46336;DHT22;31365;48.858;8.530;2022-12-07T01:57:16;4.50;99.90
46336;DHT22;31365;48.858;8.530;2022-12-07T01:59:47;4.50;99.90
46336;DHT22;31365;48.858;8.530;2022-12-07T02:02:20;4.40;99.90
46336;DHT22;31365;48.858;8.530;2022-12-07T02:04:54;4.40;99.90
46336;DHT22;31365;48.858;8.530;2022-12-07T02:07:24;4.30;99.90
46336;DHT22;31365;48.858;8.530;2022-12-07T02:09:55;4.30;99.90
46336;DHT22;31365;48.858;8.530;2022-12-07T02:12:24;4.30;99.90
46336;DHT22;31365;48.858;8.530;2022-12-07T02:14:53;4.30;99.90
46336;DHT22;31365;48.858;8.530;2022-12-07T02:17:28;4.40;99.90
46336;DHT22;31365;48.858;8.530;2022-12-07T02:20:20;4.30;99.90
46336;DHT22;31365;48.858;8.530;2022-12-07T02:23:20;4.30;99.90
46336;DHT22;31365;48.858;8.530;2022-12-07T02:26:35;4.30;99.90
46336;DHT22;31365;48.858;8.530;2022-12-07T02:29:25;4.30;99.90
46336;DHT22;31365;48.858;8.530;2022-12-07T02:32:04;4.30;99.90
46336;DHT22;31365;48.858;8.530;2022-12-07T02:34:44;4.30;99.90
46336;DHT22;31365;48.858;8.530;2022-12-07T02:37:25;4.30;99.90
46336;DHT22;31365;48.858;8.530;2022-12-07T02:40:06;4.30;99.90
46336;DHT22;31365;48.858;8.530;2022-12-07T02:42:43;4.30;99.90
46336;DHT22;31365;48.858;8.530;2022-12-07T02:45:20;4.30;99.90
46336;DHT22;31365;48.858;8.530;2022-12-07T02:47:53;4.30;99.90
46336;DHT22;31365;48.858;8.530;2022-12-07T02:50:26;4.20;99.90
46336;DHT22;31365;48.858;8.530;2022-12-07T02:52:56;4.20;99.90
46336;DHT22;31365;48.858;8.530;2022-12-07T02:55:29;4.20;99.90
46336;DHT22;31365;48.858;8.530;2022-12-07T02:58:19;4.10;99.90
46336;DHT22;31365;48.858;8.530;2022-12-07T03:01:04;4.10;99.90
46336;DHT22;31365;48.858;8.530;2022-12-07T03:03:50;4.10;99.90
46336;DHT22;31365;48.858;8.530;2022-12-07T03:06:29;4.10;99.90
46336;DHT22;31365;48.858;8.530;2022-12-07T03:09:11;4.10;99.90
46336;DHT22;31365;48.858;8.530;2022-12-07T03:11:46;4.20;99.90
46336;DHT22;31365;48.858;8.530;2022-12-07T03:14:22;4.20;99.90
46336;DHT22;31365;48.858;8.530;2022-12-07T03:17:04;4.20;99.90
46336;DHT22;31365;48.858;8.530;2022-12-07T03:19:40;4.20;99.90
46336;DHT22;31365;48.858;8.530;2022-12-07T03:22:13;4.30;99.90
46336;DHT22;31365;48.858;8.530;2022-12-07T03:24:47;4.20;99.90
46336;DHT22;31365;48.858;8.530;2022-12-07T03:27:22;4.20;99.90
46336;DHT22;31365;48.858;8.530;2022-12-07T03:29:58;4.20;99.90
46336;DHT22;31365;48.858;8.530;2022-12-07T03:32:34;4.20;99.90
46336;DHT22;31365;48.858;8.530;2022-12-07T03:35:11;4.10;99.90
46336;DHT22;31365;48.858;8.530;2022-12-07T03:37:48;4.10;99.90
46336;DHT22;31365;48.858;8.530;2022-12-07T03:40:23;4.10;99.90
46336;DHT22;31365;48.858;8.530;2022-12-07T03:42:57;4.10;99.90
46336;DHT22;31365;48.858;8.530;2022-12-07T03:45:32;4.10;99.90
46336;DHT22;31365;48.858;8.530;2022-12-07T03:48:14;4.10;99.90
46336;DHT22;31365;48.858;8.530;2022-12-07T03:50:53;4.10;99.90
46336;DHT22;31365;48.858;8.530;2022-12-07T03:53:33;4.10;99.90
46336;DHT22;31365;48.858;8.530;2022-12-07T03:56:07;4.10;99.90
46336;DHT22;31365;48.858;8.530;2022-12-07T03:58:38;4.00;99.90
46336;DHT22;31365;48.858;8.530;2022-12-07T04:01:08;4.00;99.90
46336;DHT22;31365;48.858;8.530;2022-12-07T04:03:39;4.00;99.90
46336;DHT22;31365;48.858;8.530;2022-12-07T04:06:08;4.00;99.90
46336;DHT22;31365;48.858;8.530;2022-12-07T04:08:37;4.00;99.90
46336;DHT22;31365;48.858;8.530;2022-12-07T04:11:07;4.00;99.90
46336;DHT22;31365;48.858;8.530;2022-12-07T04:13:36;3.90;99.90
46336;DHT22;31365;48.858;8.530;2022-12-07T04:16:19;3.90;99.90
46336;DHT22;31365;48.858;8.530;2022-12-07T04:18:49;3.90;99.90
46336;DHT22;31365;48.858;8.530;2022-12-07T04:21:18;3.80;99.90
46336;DHT22;31365;48.858;8.530;2022-12-07T04:23:47;3.80;99.90
46336;DHT22;31365;48.858;8.530;2022-12-07T04:26:15;3.70;99.90
46336;DHT22;31365;48.858;8.530;2022-12-07T04:28:44;3.70;99.90
46336;DHT22;31365;48.858;8.530;2022-12-07T04:31:14;3.70;99.90
46336;DHT22;31365;48.858;8.530;2022-12-07T04:33:42;3.60;99.90
46336;DHT22;31365;48.858;8.530;2022-12-07T04:36:12;3.50;99.90
46336;DHT22;31365;48.858;8.530;2022-12-07T04:38:41;3.40;99.90
46336;DHT22;31365;48.858;8.530;2022-12-07T04:41:09;3.40;99.90
46336;DHT22;31365;48.858;8.530;2022-12-07T04:43:38;3.30;99.90
46336;DHT22;31365;48.858;8.530;2022-12-07T04:46:06;3.30;99.90
46336;DHT22;31365;48.858;8.530;2022-12-07T04:48:34;3.30;99.90
46336;DHT22;31365;48.858;8.530;2022-12-07T04:51:03;3.30;99.90
46336;DHT22;31365;48.858;8.530;2022-12-07T04:53:34;3.30;99.90
46336;DHT22;31365;48.858;8.530;2022-12-07T04:56:02;3.20;99.90
46336;DHT22;31365;48.858;8.530;2022-12-07T04:58:30;3.20;99.90
46336;DHT22;31365;48.858;8.530;2022-12-07T05:01:00;3.20;99.90
46336;DHT22;31365;48.858;8.530;2022-12-07T05:03:28;3.10;99.90
46336;DHT22;31365;48.858;8.530;2022-12-07T05:05:57;3.10;99.90
46336;DHT22;31365;48.858;8.530;2022-12-07T05:08:25;3.10;99.90
46336;DHT22;31365;48.858;8.530;2022-12-07T05:10:55;3.10;99.90
46336;DHT22;31365;48.858;8.530;2022-12-07T05:13:23;3.10;99.90
46336;DHT22;31365;48.858;8.530;2022-12-07T05:15:52;3.10;99.90
46336;DHT22;31365;48.858;8.530;2022-12-07T05:18:22;3.10;99.90
46336;DHT22;31365;48.858;8.530;2022-12-07T05:20:50;3.10;99.90
46336;DHT22;31365;48.858;8.530;2022-12-07T05:23:19;3.10;99.90
46336;DHT22;31365;48.858;8.530;2022-12-07T05:25:47;3.00;99.90
46336;DHT22;31365;48.858;8.530;2022-12-07T05:28:17;2.90;99.90
46336;DHT22;31365;48.858;8.530;2022-12-07T05:30:46;3.00;99.90
46336;DHT22;31365;48.858;8.530;2022-12-07T05:33:14;3.00;99.90
46336;DHT22;31365;48.858;8.530;2022-12-07T05:35:43;3.00;99.90
46336;DHT22;31365;48.858;8.530;2022-12-07T05:38:11;3.10;99.90
46336;DHT22;31365;48.858;8.530;2022-12-07T05:40:39;3.10;99.90
46336;DHT22;31365;48.858;8.530;2022-12-07T05:43:09;3.20;99.90
46336;DHT22;31365;48.858;8.530;2022-12-07T05:45:39;3.20;99.90
46336;DHT22;31365;48.858;8.530;2022-12-07T05:48:08;3.20;99.90
46336;DHT22;31365;48.858;8.530;2022-12-07T05:50:37;3.20;99.90
46336;DHT22;31365;48.858;8.530;2022-12-07T05:53:05;3.30;99.90
46336;DHT22;31365;48.858;8.530;2022-12-07T05:55:34;3.30;99.90
46336;DHT22;31365;48.858;8.530;2022-12-07T05:58:03;3.40;99.90
46336;DHT22;31365;48.858;8.530;2022-12-07T06:00:50;3.40;99.90
46336;DHT22;31365;48.858;8.530;2022-12-07T06:03:19;3.40;99.90
46336;DHT22;31365;48.858;8.530;2022-12-07T06:05:48;3.40;99.90
46336;DHT22;31365;48.858;8.530;2022-12-07T06:08:17;3.50;99.90
46336;DHT22;31365;48.858;8.530;2022-12-07T06:10:47;3.50;99.90
46336;DHT22;31365;48.858;8.530;2022-12-07T06:13:40;3.50;99.90
46336;DHT22;31365;48.858;8.530;2022-12-07T06:16:14;3.50;99.90
46336;DHT22;31365;48.858;8.530;2022-12-07T06:18:42;3.60;99.90
46336;DHT22;31365;48.858;8.530;2022-12-07T06:21:11;3.60;99.90
46336;DHT22;31365;48.858;8.530;2022-12-07T06:23:39;3.60;99.90
46336;DHT22;31365;48.858;8.530;2022-12-07T06:26:08;3.60;99.90
46336;DHT22;31365;48.858;8.530;2022-12-07T06:28:37;3.60;99.90
46336;DHT22;31365;48.858;8.530;2022-12-07T06:31:05;3.60;99.90
46336;DHT22;31365;48.858;8.530;2022-12-07T06:33:41;3.60;99.90
46336;DHT22;31365;48.858;8.530;2022-12-07T06:36:10;3.70;99.90
46336;DHT22;31365;48.858;8.530;2022-12-07T06:38:39;3.70;99.90
46336;DHT22;31365;48.858;8.530;2022-12-07T06:41:07;3.70;99.90
46336;DHT22;31365;48.858;8.530;2022-12-07T06:43:36;3.70;99.90
46336;DHT22;31365;48.858;8.530;2022-12-07T06:46:05;3.70;99.90
46336;DHT22;31365;48.858;8.530;2022-12-07T06:48:34;3.80;99.90
46336;DHT22;31365;48.858;8.530;2022-12-07T06:51:04;3.80;99.90
46336;DHT22;31365;48.858;8.530;2022-12-07T06:53:34;3.80;99.90
46336;DHT22;31365;48.858;8.530;2022-12-07T06:56:04;3.80;99.90
46336;DHT22;31365;48.858;8.530;2022-12-07T06:58:33;3.80;99.90
46336;DHT22;31365;48.858;8.530;2022-12-07T07:01:02;3.70;99.90
46336;DHT22;31365;48.858;8.530;2022-12-07T07:03:30;3.70;99.90
46336;DHT22;31365;48.858;8.530;2022-12-07T07:05:59;3.70;99.90
46336;DHT22;31365;48.858;8.530;2022-12-07T07:08:29;3.80;99.90
46336;DHT22;31365;48.858;8.530;2022-12-07T07:10:58;3.80;99.90
46336;DHT22;31365;48.858;8.530;2022-12-07T07:13:27;3.80;99.90
46336;DHT22;31365;48.858;8.530;2022-12-07T07:15:56;3.80;99.90
46336;DHT22;31365;48.858;8.530;2022-12-07T07:18:24;3.80;99.90
46336;DHT22;31365;48.858;8.530;2022-12-07T07:20:53;3.80;99.90
46336;DHT22;31365;48.858;8.530;2022-12-07T07:23:22;3.80;99.90
46336;DHT22;31365;48.858;8.530;2022-12-07T07:25:53;3.80;99.90
46336;DHT22;31365;48.858;8.530;2022-12-07T07:28:22;3.90;99.90
46336;DHT22;31365;48.858;8.530;2022-12-07T07:30:51;3.80;99.90
46336;DHT22;31365;48.858;8.530;2022-12-07T07:33:20;3.90;99.90
46336;DHT22;31365;48.858;8.530;2022-12-07T07:35:49;3.90;99.90
46336;DHT22;31365;48.858;8.530;2022-12-07T07:38:17;3.90;99.90
46336;DHT22;31365;48.858;8.530;2022-12-07T07:40:46;3.90;99.90
46336;DHT22;31365;48.858;8.530;2022-12-07T07:43:15;3.90;99.90
46336;DHT22;31365;48.858;8.530;2022-12-07T07:45:44;3.90;99.90
46336;DHT22;31365;48.858;8.530;2022-12-07T07:48:13;3.90;99.90
46336;DHT22;31365;48.858;8.530;2022-12-07T07:50:42;3.90;99.90
46336;DHT22;31365;48.858;8.530;2022-12-07T07:53:11;4.00;99.90
46336;DHT22;31365;48.858;8.530;2022-12-07T07:55:40;4.00;99.90
46336;DHT22;31365;48.858;8.530;2022-12-07T07:58:10;4.10;99.90
46336;DHT22;31365;48.858;8.530;2022-12-07T08:00:40;4.10;99.90
46336;DHT22;31365;48.858;8.530;2022-12-07T08:03:08;4.10;99.90
46336;DHT22;31365;48.858;8.530;2022-12-07T08:05:37;4.20;99.90
46336;DHT22;31365;48.858;8.530;2022-12-07T08:08:06;4.20;99.90
46336;DHT22;31365;48.858;8.530;2022-12-07T08:10:34;4.20;99.90
46336;DHT22;31365;48.858;8.530;2022-12-07T08:13:03;4.20;99.90
46336;DHT22;31365;48.858;8.530;2022-12-07T08:15:45;4.30;99.90
46336;DHT22;31365;48.858;8.530;2022-12-07T08:18:15;4.40;99.90
46336;DHT22;31365;48.858;8.530;2022-12-07T08:20:44;4.40;99.90
46336;DHT22;31365;48.858;8.530;2022-12-07T08:23:13;4.40;99.90
46336;DHT22;31365;48.858;8.530;2022-12-07T08:25:41;4.50;99.90
46336;DHT22;31365;48.858;8.530;2022-12-07T08:28:10;4.50;99.90
46336;DHT22;31365;48.858;8.530;2022-12-07T08:30:38;4.60;99.90
46336;DHT22;31365;48.858;8.530;2022-12-07T08:33:09;4.70;99.90
46336;DHT22;31365;48.858;8.530;2022-12-07T08:35:38;4.70;99.90
46336;DHT22;31365;48.858;8.530;2022-12-07T08:38:06;4.80;99.90
46336;DHT22;31365;48.858;8.530;2022-12-07T08:40:35;4.80;99.90
46336;DHT22;31365;48.858;8.530;2022-12-07T08:43:04;4.80;99.90
46336;DHT22;31365;48.858;8.530;2022-12-07T08:45:32;4.80;99.90
46336;DHT22;31365;48.858;8.530;2022-12-07T08:48:06;4.80;99.90
46336;DHT22;31365;48.858;8.530;2022-12-07T08:50:38;4.80;99.90
46336;DHT22;31365;48.858;8.530;2022-12-07T08:53:16;4.90;99.90
46336;DHT22;31365;48.858;8.530;2022-12-07T08:55:45;4.90;99.90
46336;DHT22;31365;48.858;8.530;2022-12-07T08:58:15;4.90;99.90
46336;DHT22;31365;48.858;8.530;2022-12-07T09:00:44;4.90;99.90
46336;DHT22;31365;48.858;8.530;2022-12-07T09:03:14;4.90;99.90
46336;DHT22;31365;48.858;8.530;2022-12-07T09:05:42;4.80;99.90
46336;DHT22;31365;48.858;8.530;2022-12-07T09:08:11;4.80;99.90
46336;DHT22;31365;48.858;8.530;2022-12-07T09:10:40;4.80;99.90
46336;DHT22;31365;48.858;8.530;2022-12-07T09:13:08;4.70;99.90
46336;DHT22;31365;48.858;8.530;2022-12-07T09:15:37;4.70;99.90
46336;DHT22;31365;48.858;8.530;2022-12-07T09:18:06;4.70;99.90
46336;DHT22;31365;48.858;8.530;2022-12-07T09:20:36;4.70;99.90
46336;DHT22;31365;48.858;8.530;2022-12-07T09:23:05;4.60;99.90
46336;DHT22;31365;48.858;8.530;2022-12-07T09:25:34;4.50;99.90
46336;DHT22;31365;48.858;8.530;2022-12-07T09:28:03;4.40;99.90
46336;DHT22;31365;48.858;8.530;2022-12-07T09:30:32;4.30;99.90
46336;DHT22;31365;48.858;8.530;2022-12-07T09:33:20;4.10;99.90
46336;DHT22;31365;48.858;8.530;2022-12-07T09:35:51;4.10;99.90
46336;DHT22;31365;48.858;8.530;2022-12-07T09:38:23;4.00;99.90
46336;DHT22;31365;48.858;8.530;2022-12-07T09:40:54;4.00;99.90
46336;DHT22;31365;48.858;8.530;2022-12-07T09:43:24;4.10;99.90
46336;DHT22;31365;48.858;8.530;2022-12-07T09:45:55;4.20;99.90
46336;DHT22;31365;48.858;8.530;2022-12-07T09:48:29;4.30;99.90
46336;DHT22;31365;48.858;8.530;2022-12-07T09:51:01;4.20;99.90
46336;DHT22;31365;48.858;8.530;2022-12-07T09:53:34;4.20;99.90
46336;DHT22;31365;48.858;8.530;2022-12-07T09:56:05;4.20;99.90
46336;DHT22;31365;48.858;8.530;2022-12-07T09:58:34;4.30;99.90
46336;DHT22;31365;48.858;8.530;2022-12-07T10:01:11;4.30;99.90
46336;DHT22;31365;48.858;8.530;2022-12-07T10:03:45;4.30;99.90
46336;DHT22;31365;48.858;8.530;2022-12-07T10:06:18;4.30;99.90
46336;DHT22;31365;48.858;8.530;2022-12-07T10:08:48;4.20;99.90
46336;DHT22;31365;48.858;8.530;2022-12-07T10:11:17;4.20;99.90
46336;DHT22;31365;48.858;8.530;2022-12-07T10:13:47;4.30;99.90
46336;DHT22;31365;48.858;8.530;2022-12-07T10:16:36;4.40;99.90
46336;DHT22;31365;48.858;8.530;2022-12-07T10:19:23;4.60;99.90
46336;DHT22;31365;48.858;8.530;2022-12-07T10:22:04;4.80;99.90
46336;DHT22;31365;48.858;8.530;2022-12-07T10:24:37;5.10;99.90
46336;DHT22;31365;48.858;8.530;2022-12-07T10:27:18;5.20;99.90
46336;DHT22;31365;48.858;8.530;2022-12-07T10:29:50;5.30;99.90
46336;DHT22;31365;48.858;8.530;2022-12-07T10:32:31;5.30;99.90
46336;DHT22;31365;48.858;8.530;2022-12-07T10:35:24;5.30;99.90
46336;DHT22;31365;48.858;8.530;2022-12-07T10:37:56;5.20;99.90
46336;DHT22;31365;48.858;8.530;2022-12-07T10:40:30;5.20;99.90
46336;DHT22;31365;48.858;8.530;2022-12-07T10:43:03;5.20;99.90
46336;DHT22;31365;48.858;8.530;2022-12-07T10:45:35;5.20;99.90
46336;DHT22;31365;48.858;8.530;2022-12-07T10:48:34;5.20;99.90
46336;DHT22;31365;48.858;8.530;2022-12-07T10:51:20;5.30;99.90
46336;DHT22;31365;48.858;8.530;2022-12-07T10:54:10;5.20;99.90
46336;DHT22;31365;48.858;8.530;2022-12-07T10:56:57;5.20;99.90
46336;DHT22;31365;48.858;8.530;2022-12-07T10:59:52;5.20;99.90
46336;DHT22;31365;48.858;8.530;2022-12-07T11:02:38;5.20;99.90
46336;DHT22;31365;48.858;8.530;2022-12-07T11:05:18;5.20;99.90
46336;DHT22;31365;48.858;8.530;2022-12-07T11:08:03;5.30;99.90
46336;DHT22;31365;48.858;8.530;2022-12-07T11:10:44;5.40;99.90
46336;DHT22;31365;48.858;8.530;2022-12-07T11:13:25;5.30;99.90
46336;DHT22;31365;48.858;8.530;2022-12-07T11:16:18;5.30;99.90
46336;DHT22;31365;48.858;8.530;2022-12-07T11:19:04;5.30;99.90
46336;DHT22;31365;48.858;8.530;2022-12-07T11:21:56;5.30;99.90
46336;DHT22;31365;48.858;8.530;2022-12-07T11:24:31;5.30;99.90
46336;DHT22;31365;48.858;8.530;2022-12-07T11:27:17;5.40;99.90
46336;DHT22;31365;48.858;8.530;2022-12-07T11:30:12;5.50;99.90
46336;DHT22;31365;48.858;8.530;2022-12-07T11:32:57;5.50;99.90
46336;DHT22;31365;48.858;8.530;2022-12-07T11:35:44;5.60;99.90
46336;DHT22;31365;48.858;8.530;2022-12-07T11:38:24;5.60;99.90
46336;DHT22;31365;48.858;8.530;2022-12-07T11:41:02;5.60;99.90
46336;DHT22;31365;48.858;8.530;2022-12-07T11:43:52;5.80;99.90
46336;DHT22;31365;48.858;8.530;2022-12-07T11:46:27;5.80;99.90
46336;DHT22;31365;48.858;8.530;2022-12-07T11:49:03;5.80;99.90
46336;DHT22;31365;48.858;8.530;2022-12-07T11:51:39;5.80;99.90
46336;DHT22;31365;48.858;8.530;2022-12-07T11:54:14;5.90;99.90
46336;DHT22;31365;48.858;8.530;2022-12-07T11:56:48;5.90;99.90
46336;DHT22;31365;48.858;8.530;2022-12-07T11:59:23;5.90;99.90
46336;DHT22;31365;48.858;8.530;2022-12-07T12:02:07;5.90;99.90
46336;DHT22;31365;48.858;8.530;2022-12-07T12:04:49;5.90;99.90
46336;DHT22;31365;48.858;8.530;2022-12-07T12:07:24;5.80;99.90
46336;DHT22;31365;48.858;8.530;2022-12-07T12:10:19;5.80;99.90
46336;DHT22;31365;48.858;8.530;2022-12-07T12:13:24;5.60;99.90
46336;DHT22;31365;48.858;8.530;2022-12-07T12:17:01;5.50;99.90
46336;DHT22;31365;48.858;8.530;2022-12-07T12:20:00;5.40;99.90
46336;DHT22;31365;48.858;8.530;2022-12-07T12:22:36;5.50;99.90
46336;DHT22;31365;48.858;8.530;2022-12-07T12:25:16;5.50;99.90
46336;DHT22;31365;48.858;8.530;2022-12-07T12:27:50;5.40;99.90
46336;DHT22;31365;48.858;8.530;2022-12-07T12:30:33;5.30;99.90
46336;DHT22;31365;48.858;8.530;2022-12-07T12:33:11;5.30;99.90
46336;DHT22;31365;48.858;8.530;2022-12-07T12:35:43;5.50;99.90
46336;DHT22;31365;48.858;8.530;2022-12-07T12:38:32;5.50;99.90
46336;DHT22;31365;48.858;8.530;2022-12-07T12:41:01;5.60;99.90
46336;DHT22;31365;48.858;8.530;2022-12-07T12:43:50;5.60;99.90
46336;DHT22;31365;48.858;8.530;2022-12-07T12:46:54;5.40;99.90
46336;DHT22;31365;48.858;8.530;2022-12-07T12:49:43;5.40;99.90
46336;DHT22;31365;48.858;8.530;2022-12-07T12:52:52;5.50;99.90
46336;DHT22;31365;48.858;8.530;2022-12-07T12:59:24;5.50;99.90
46336;DHT22;31365;48.858;8.530;2022-12-07T13:02:15;5.30;99.90
46336;DHT22;31365;48.858;8.530;2022-12-07T13:04:55;5.20;99.90
46336;DHT22;31365;48.858;8.530;2022-12-07T13:08:00;5.20;99.90
46336;DHT22;31365;48.858;8.530;2022-12-07T13:10:42;5.20;99.90
46336;DHT22;31365;48.858;8.530;2022-12-07T13:13:35;5.10;99.90
46336;DHT22;31365;48.858;8.530;2022-12-07T13:16:39;5.00;99.90
46336;DHT22;31365;48.858;8.530;2022-12-07T13:22:50;5.00;99.90
46336;DHT22;31365;48.858;8.530;2022-12-07T13:25:28;5.10;99.90
46336;DHT22;31365;48.858;8.530;2022-12-07T13:28:09;5.00;99.90
46336;DHT22;31365;48.858;8.530;2022-12-07T13:31:04;5.00;99.90
46336;DHT22;31365;48.858;8.530;2022-12-07T13:33:43;5.00;99.90
46336;DHT22;31365;48.858;8.530;2022-12-07T13:36:19;5.10;99.90
46336;DHT22;31365;48.858;8.530;2022-12-07T13:38:54;5.20;99.90
46336;DHT22;31365;48.858;8.530;2022-12-07T13:41:25;5.30;99.90
46336;DHT22;31365;48.858;8.530;2022-12-07T13:44:00;5.30;99.90
46336;DHT22;31365;48.858;8.530;2022-12-07T13:46:41;5.50;99.90
46336;DHT22;31365;48.858;8.530;2022-12-07T13:49:20;5.40;99.90
46336;DHT22;31365;48.858;8.530;2022-12-07T13:51:53;5.30;99.90
46336;DHT22;31365;48.858;8.530;2022-12-07T13:54:22;5.20;99.90
46336;DHT22;31365;48.858;8.530;2022-12-07T13:56:51;5.10;99.90
46336;DHT22;31365;48.858;8.530;2022-12-07T13:59:21;5.10;99.90
46336;DHT22;31365;48.858;8.530;2022-12-07T14:01:53;4.90;99.90
46336;DHT22;31365;48.858;8.530;2022-12-07T14:04:32;4.90;99.90
46336;DHT22;31365;48.858;8.530;2022-12-07T14:07:20;4.90;99.90
46336;DHT22;31365;48.858;8.530;2022-12-07T14:09:56;4.90;99.90
46336;DHT22;31365;48.858;8.530;2022-12-07T14:12:28;4.90;99.90
46336;DHT22;31365;48.858;8.530;2022-12-07T14:14:59;4.90;99.90
46336;DHT22;31365;48.858;8.530;2022-12-07T14:17:29;4.90;99.90
46336;DHT22;31365;48.858;8.530;2022-12-07T14:19:59;4.90;99.90
46336;DHT22;31365;48.858;8.530;2022-12-07T14:22:32;4.90;99.90
46336;DHT22;31365;48.858;8.530;2022-12-07T14:25:18;4.90;99.90
46336;DHT22;31365;48.858;8.530;2022-12-07T14:27:54;4.90;99.90
46336;DHT22;31365;48.858;8.530;2022-12-07T14:30:27;4.80;99.90
46336;DHT22;31365;48.858;8.530;2022-12-07T14:32:59;4.80;99.90
46336;DHT22;31365;48.858;8.530;2022-12-07T14:35:30;4.70;99.90
46336;DHT22;31365;48.858;8.530;2022-12-07T14:38:01;4.60;99.90
46336;DHT22;31365;48.858;8.530;2022-12-07T14:40:29;4.60;99.90
46336;DHT22;31365;48.858;8.530;2022-12-07T14:43:01;4.70;99.90
46336;DHT22;31365;48.858;8.530;2022-12-07T14:45:33;4.60;99.90
46336;DHT22;31365;48.858;8.530;2022-12-07T14:48:01;4.60;99.90
46336;DHT22;31365;48.858;8.530;2022-12-07T14:50:52;4.60;99.90
46336;DHT22;31365;48.858;8.530;2022-12-07T14:53:45;4.60;99.90
46336;DHT22;31365;48.858;8.530;2022-12-07T14:56:23;4.60;99.90
46336;DHT22;31365;48.858;8.530;2022-12-07T14:58:51;4.60;99.90
46336;DHT22;31365;48.858;8.530;2022-12-07T15:01:20;4.50;99.90
46336;DHT22;31365;48.858;8.530;2022-12-07T15:03:48;4.40;99.90
46336;DHT22;31365;48.858;8.530;2022-12-07T15:06:17;4.50;99.90
46336;DHT22;31365;48.858;8.530;2022-12-07T15:08:47;4.40;99.90
46336;DHT22;31365;48.858;8.530;2022-12-07T15:11:17;4.40;99.90
46336;DHT22;31365;48.858;8.530;2022-12-07T15:13:46;4.30;99.90
46336;DHT22;31365;48.858;8.530;2022-12-07T15:16:32;4.30;99.90
46336;DHT22;31365;48.858;8.530;2022-12-07T15:19:22;4.30;99.90
46336;DHT22;31365;48.858;8.530;2022-12-07T15:22:23;4.30;99.90
46336;DHT22;31365;48.858;8.530;2022-12-07T15:24:52;4.30;99.90
46336;DHT22;31365;48.858;8.530;2022-12-07T15:27:21;4.30;99.90
46336;DHT22;31365;48.858;8.530;2022-12-07T15:29:50;4.20;99.90
46336;DHT22;31365;48.858;8.530;2022-12-07T15:32:20;4.20;99.90
46336;DHT22;31365;48.858;8.530;2022-12-07T15:34:50;4.20;99.90
46336;DHT22;31365;48.858;8.530;2022-12-07T15:37:19;4.20;99.90
46336;DHT22;31365;48.858;8.530;2022-12-07T15:39:47;4.30;99.90
46336;DHT22;31365;48.858;8.530;2022-12-07T15:42:16;4.30;99.90
46336;DHT22;31365;48.858;8.530;2022-12-07T15:44:45;4.30;99.90
46336;DHT22;31365;48.858;8.530;2022-12-07T15:47:33;4.30;99.90
46336;DHT22;31365;48.858;8.530;2022-12-07T15:50:24;4.40;99.90
46336;DHT22;31365;48.858;8.530;2022-12-07T15:52:53;4.30;99.90
46336;DHT22;31365;48.858;8.530;2022-12-07T15:55:22;4.30;99.90
46336;DHT22;31365;48.858;8.530;2022-12-07T15:57:52;4.40;99.90
46336;DHT22;31365;48.858;8.530;2022-12-07T16:00:20;4.40;99.90
46336;DHT22;31365;48.858;8.530;2022-12-07T16:02:48;4.40;99.90
46336;DHT22;31365;48.858;8.530;2022-12-07T16:05:17;4.40;99.90
46336;DHT22;31365;48.858;8.530;2022-12-07T16:07:45;4.40;99.90
46336;DHT22;31365;48.858;8.530;2022-12-07T16:10:14;4.50;99.90
46336;DHT22;31365;48.858;8.530;2022-12-07T16:12:42;4.40;99.90
46336;DHT22;31365;48.858;8.530;2022-12-07T16:15:12;4.50;99.90
46336;DHT22;31365;48.858;8.530;2022-12-07T16:17:44;4.50;99.90
46336;DHT22;31365;48.858;8.530;2022-12-07T16:20:13;4.50;99.90
46336;DHT22;31365;48.858;8.530;2022-12-07T16:22:41;4.50;99.90
46336;DHT22;31365;48.858;8.530;2022-12-07T16:25:09;4.50;99.90
46336;DHT22;31365;48.858;8.530;2022-12-07T16:27:38;4.50;99.90
46336;DHT22;31365;48.858;8.530;2022-12-07T16:30:07;4.50;99.90
46336;DHT22;31365;48.858;8.530;2022-12-07T16:32:38;4.50;99.90
46336;DHT22;31365;48.858;8.530;2022-12-07T16:35:08;4.50;99.90
46336;DHT22;31365;48.858;8.530;2022-12-07T16:37:36;4.40;99.90
46336;DHT22;31365;48.858;8.530;2022-12-07T16:40:06;4.40;99.90
46336;DHT22;31365;48.858;8.530;2022-12-07T16:42:35;4.30;99.90
46336;DHT22;31365;48.858;8.530;2022-12-07T16:45:05;4.30;99.90
46336;DHT22;31365;48.858;8.530;2022-12-07T16:47:38;4.40;99.90
46336;DHT22;31365;48.858;8.530;2022-12-07T16:50:07;4.40;99.90